St Ives Cambridgeshire, United Kingdom
Current Conditions -  °F | °C
As of 6:58 AM on Friday 31 Oct 2014 (Local Time) from EGUN Reporting Station
Clear Clear  
Wind Chill: 14°   Ceiling: Unl
Heat Index: 14°   Visibility: 6mi
Dew Point: 13°   Wind: 6mph
Humidity: 92%   Direction: 160°SSE
Pressure: 30.03"   Gusts: NA
Location:  52.34°N, 0.07°W
Report Text: EGUN 310658Z AUTO 16005KT 9999 CLR 14/13 A3003 RMK AO2 SLP172 T01390127
Loading
Personal Weather Stations






























Interactive Weather Map
Tropical Storm Tracking
New forecast layout! Learn more

10-Day Weather Forecast

Advertisements
Track Severe Weather on mobile